createdAt,value
2017-08-14T00:01:50.685Z,95512.70
2017-08-14T00:04:18.189Z,95514.81
2017-08-14T00:06:45.953Z,95520.91
2017-08-14T00:09:13.494Z,95514.41
2017-08-14T00:11:41.017Z,95509.92
2017-08-14T00:14:08.540Z,95515.05
2017-08-14T00:16:36.103Z,95508.45
2017-08-14T00:19:03.620Z,95506.70
2017-08-14T00:21:31.151Z,95506.55
2017-08-14T00:23:58.708Z,95515.77
2017-08-14T00:26:26.220Z,95505.92
2017-08-14T00:28:53.783Z,95509.30
2017-08-14T00:31:21.322Z,95509.63
2017-08-14T00:33:49.072Z,95508.28
2017-08-14T00:36:16.929Z,95506.94
2017-08-14T00:38:44.487Z,95506.92
2017-08-14T00:41:11.997Z,95504.44
2017-08-14T00:43:39.535Z,95499.59
2017-08-14T00:46:07.073Z,95494.74
2017-08-14T00:48:34.621Z,95495.20
2017-08-14T00:51:02.145Z,95489.03
2017-08-14T00:53:29.730Z,95492.91
2017-08-14T00:55:57.260Z,95494.94
2017-08-14T00:58:24.811Z,95497.69
2017-08-14T01:00:52.384Z,95494.87
2017-08-14T01:03:20.157Z,95495.15
2017-08-14T01:05:47.653Z,95486.23
2017-08-14T01:08:15.521Z,95491.50
2017-08-14T01:10:43.049Z,95483.16
2017-08-14T01:13:10.579Z,95486.23
2017-08-14T01:15:38.356Z,95483.78
2017-08-14T01:18:05.862Z,95474.59
2017-08-14T01:20:33.382Z,95475.55
2017-08-14T01:23:00.944Z,95477.45
2017-08-14T01:25:28.453Z,95483.96
2017-08-14T01:27:55.962Z,95479.08
2017-08-14T01:30:23.561Z,95475.04
2017-08-14T01:32:51.064Z,95481.41
2017-08-14T01:35:18.561Z,95478.58
2017-08-14T01:37:46.111Z,95471.78
2017-08-14T01:40:13.637Z,95474.13
2017-08-14T01:42:41.428Z,95478.28
2017-08-14T01:45:08.984Z,95479.41
2017-08-14T01:47:36.476Z,95481.72
2017-08-14T01:50:04.025Z,95477.98
2017-08-14T01:52:31.592Z,95479.68
2017-08-14T01:54:59.350Z,95483.97
2017-08-14T01:57:26.868Z,95477.19
2017-08-14T01:59:54.401Z,95488.87
2017-08-14T02:02:22.169Z,95475.82
2017-08-14T02:04:49.737Z,95474.86
2017-08-14T02:07:17.265Z,95478.52
2017-08-14T02:09:45.695Z,95479.92
2017-08-14T02:12:13.211Z,95474.47
2017-08-14T02:14:40.725Z,95476.70
2017-08-14T02:17:08.276Z,95484.20
2017-08-14T02:19:35.794Z,95481.70
2017-08-14T02:22:03.303Z,95488.69
2017-08-14T02:24:30.837Z,95481.05
2017-08-14T02:26:58.361Z,95479.63
2017-08-14T02:29:25.860Z,95481.57
2017-08-14T02:31:53.394Z,95473.55
2017-08-14T02:34:20.925Z,95476.01
2017-08-14T02:36:48.428Z,95475.36
2017-08-14T02:39:15.973Z,95482.66
2017-08-14T02:41:43.478Z,95484.41
2017-08-14T02:44:11.373Z,95475.89
2017-08-14T02:46:38.913Z,95485.17
2017-08-14T02:49:06.440Z,95480.16
2017-08-14T02:51:33.956Z,95484.73
2017-08-14T02:54:01.498Z,95494.38
2017-08-14T02:56:29.877Z,95499.84
2017-08-14T02:58:57.743Z,95496.54
2017-08-14T03:01:25.506Z,95499.29
2017-08-14T03:03:53.022Z,95504.64
2017-08-14T03:06:20.531Z,95496.16
2017-08-14T03:08:48.080Z,95500.38
2017-08-14T03:11:15.921Z,95497.11
2017-08-14T03:13:43.721Z,95500.89
2017-08-14T03:16:11.329Z,95503.55
2017-08-14T03:18:38.833Z,95503.45
2017-08-14T03:21:06.385Z,95510.98
2017-08-14T03:23:34.271Z,95511.47
2017-08-14T03:26:01.780Z,95516.47
2017-08-14T03:28:29.327Z,95512.65
2017-08-14T03:30:56.874Z,95515.08
2017-08-14T03:33:24.643Z,95516.59
2017-08-14T03:35:52.414Z,95517.98
2017-08-14T03:38:19.959Z,95508.04
2017-08-14T03:40:47.790Z,95521.84
2017-08-14T03:43:15.336Z,95521.70
2017-08-14T03:45:42.868Z,95518.58
2017-08-14T03:48:10.837Z,95520.22
2017-08-14T03:50:39.276Z,95525.94
2017-08-14T03:53:06.830Z,95532.23
2017-08-14T03:55:34.337Z,95522.31
2017-08-14T03:58:02.143Z,95539.36
2017-08-14T04:00:29.908Z,95539.73
2017-08-14T04:02:57.786Z,95537.91
2017-08-14T04:05:25.443Z,95536.28
2017-08-14T04:07:53.052Z,95547.48
2017-08-14T04:10:20.581Z,95541.28
2017-08-14T04:12:48.087Z,95541.27
2017-08-14T04:15:15.632Z,95554.12
2017-08-14T04:17:43.371Z,95550.75
2017-08-14T04:20:10.869Z,95543.97
2017-08-14T04:22:38.414Z,95554.09
2017-08-14T04:25:05.913Z,95550.52
2017-08-14T04:27:33.417Z,95554.89
2017-08-14T04:30:01.706Z,95556.12
2017-08-14T04:32:29.275Z,95563.92
2017-08-14T04:34:57.084Z,95551.14
2017-08-14T04:37:25.306Z,95553.20
2017-08-14T04:39:52.850Z,95550.14
2017-08-14T04:42:20.375Z,95549.80
2017-08-14T04:44:47.910Z,95554.23
2017-08-14T04:47:15.496Z,95553.33
2017-08-14T04:49:42.992Z,95558.97
2017-08-14T04:52:11.568Z,95562.66
2017-08-14T04:54:39.137Z,95566.13
2017-08-14T04:57:06.669Z,95563.34
2017-08-14T04:59:34.487Z,95570.65
2017-08-14T05:02:02.055Z,95577.66
2017-08-14T05:04:29.568Z,95583.40
2017-08-14T05:06:57.107Z,95572.96
2017-08-14T05:09:24.870Z,95577.69
2017-08-14T05:11:52.660Z,95577.58
2017-08-14T05:14:20.156Z,95580.02
2017-08-14T05:16:47.756Z,95585.13
2017-08-14T05:19:15.501Z,95589.30
2017-08-14T05:21:43.232Z,95585.27
2017-08-14T05:24:10.871Z,95592.06
2017-08-14T05:26:38.400Z,95592.01
2017-08-14T05:29:05.917Z,95591.67
2017-08-14T05:31:33.464Z,95595.47
2017-08-14T05:34:00.966Z,95606.31
2017-08-14T05:36:28.483Z,95601.12
2017-08-14T05:38:56.074Z,95598.91
2017-08-14T05:41:23.588Z,95605.21
2017-08-14T05:43:51.101Z,95607.08
2017-08-14T05:46:18.705Z,95611.73
2017-08-14T05:48:46.255Z,95612.04
2017-08-14T05:51:13.774Z,95610.61
2017-08-14T05:53:41.335Z,95613.69
2017-08-14T05:56:09.179Z,95611.50
2017-08-14T05:58:36.974Z,95617.97
2017-08-14T06:01:04.905Z,95616.80
2017-08-14T06:03:32.479Z,95622.87
2017-08-14T06:05:59.989Z,95623.64
2017-08-14T06:08:27.525Z,95621.23
2017-08-14T06:10:55.026Z,95616.55
2017-08-14T06:13:22.603Z,95611.23
2017-08-14T06:15:50.170Z,95626.08
2017-08-14T06:18:17.967Z,95631.06
2017-08-14T06:20:45.464Z,95624.41
2017-08-14T06:23:13.055Z,95625.20
2017-08-14T06:25:40.564Z,95625.05
2017-08-14T06:28:08.073Z,95627.97
2017-08-14T06:30:35.716Z,95634.83
2017-08-14T06:33:03.300Z,95629.11
2017-08-14T06:35:30.835Z,95637.73
2017-08-14T06:37:58.385Z,95640.95
2017-08-14T06:40:25.901Z,95643.32
2017-08-14T06:42:53.767Z,95642.67
2017-08-14T06:45:21.338Z,95644.01
2017-08-14T06:47:48.843Z,95642.01
2017-08-14T06:50:16.641Z,95641.23
2017-08-14T06:52:44.176Z,95642.44
2017-08-14T06:55:11.693Z,95649.87
2017-08-14T06:57:39.202Z,95645.91
2017-08-14T07:00:07.827Z,95648.83
2017-08-14T07:02:35.400Z,95650.73
2017-08-14T07:05:03.003Z,95649.56
2017-08-14T07:07:30.760Z,95650.66
2017-08-14T07:09:58.951Z,95654.45
2017-08-14T07:12:26.773Z,95652.62
2017-08-14T07:14:54.336Z,95652.11
2017-08-14T07:17:22.163Z,95646.04
2017-08-14T07:19:49.708Z,95649.98
2017-08-14T07:22:17.255Z,95657.03
2017-08-14T07:24:44.775Z,95658.00
2017-08-14T07:27:12.539Z,95654.80
2017-08-14T07:29:40.069Z,95654.29
2017-08-14T07:32:07.617Z,95654.09
2017-08-14T07:34:35.124Z,95665.47
2017-08-14T07:37:02.916Z,95659.96
2017-08-14T07:39:30.469Z,95654.66
2017-08-14T07:41:58.308Z,95656.63
2017-08-14T07:44:25.818Z,95656.83
2017-08-14T07:46:54.206Z,95665.25
2017-08-14T07:49:21.731Z,95654.30
2017-08-14T07:51:49.256Z,95661.95
2017-08-14T07:54:16.848Z,95658.55
2017-08-14T07:56:44.395Z,95670.61
2017-08-14T07:59:11.924Z,95659.80
2017-08-14T08:01:39.529Z,95670.52
2017-08-14T08:04:07.058Z,95662.30
2017-08-14T08:06:34.608Z,95665.66
2017-08-14T08:09:02.157Z,95663.13
2017-08-14T08:11:29.672Z,95667.24
2017-08-14T08:13:57.186Z,95671.92
2017-08-14T08:16:25.365Z,95667.61
2017-08-14T08:18:52.932Z,95669.77
2017-08-14T08:21:20.479Z,95670.17
2017-08-14T08:23:48.064Z,95669.73
2017-08-14T08:26:15.587Z,95673.80
2017-08-14T08:28:43.345Z,95661.70
2017-08-14T08:31:10.901Z,95674.09
2017-08-14T08:33:38.466Z,95682.53
2017-08-14T08:36:07.006Z,95669.00
2017-08-14T08:38:34.545Z,95688.61
2017-08-14T08:41:02.374Z,95683.50
2017-08-14T08:43:29.963Z,95684.23
2017-08-14T08:45:57.489Z,95687.16
2017-08-14T08:48:25.287Z,95687.48
2017-08-14T08:50:52.806Z,95680.22
2017-08-14T08:53:20.372Z,95681.09
2017-08-14T08:55:47.886Z,95673.41
2017-08-14T08:58:15.621Z,95676.94
2017-08-14T09:00:43.157Z,95673.08
2017-08-14T09:03:10.681Z,95681.63
2017-08-14T09:05:38.186Z,95684.70
2017-08-14T09:08:05.783Z,95678.24
2017-08-14T09:10:33.601Z,95680.33
2017-08-14T09:13:01.364Z,95682.39
2017-08-14T09:15:28.944Z,95682.27
2017-08-14T09:17:56.479Z,95674.03
2017-08-14T09:20:24.245Z,95681.49
2017-08-14T09:22:51.815Z,95679.63
2017-08-14T09:25:19.342Z,95678.27
2017-08-14T09:27:46.897Z,95674.05
2017-08-14T09:30:14.503Z,95681.20
2017-08-14T09:32:42.242Z,95682.42
2017-08-14T09:35:09.767Z,95682.00
2017-08-14T09:37:37.330Z,95686.56
2017-08-14T09:40:04.846Z,95688.85
2017-08-14T09:42:32.369Z,95696.86
2017-08-14T09:44:59.925Z,95695.45
2017-08-14T09:47:27.687Z,95690.44
2017-08-14T09:49:55.197Z,95699.40
2017-08-14T09:52:22.743Z,95699.84
2017-08-14T09:54:50.512Z,95696.19
2017-08-14T09:57:18.025Z,95695.83
2017-08-14T09:59:45.580Z,95692.61
2017-08-14T10:02:13.476Z,95697.11
2017-08-14T10:04:41.346Z,95695.26
2017-08-14T10:07:08.884Z,95692.00
2017-08-14T10:09:36.435Z,95685.47
2017-08-14T10:12:04.007Z,95689.59
2017-08-14T10:14:31.528Z,95685.55
2017-08-14T10:16:59.085Z,95686.75
2017-08-14T10:19:27.429Z,95679.48
2017-08-14T10:21:54.976Z,95694.17
2017-08-14T10:24:22.518Z,95679.20
2017-08-14T10:26:50.941Z,95682.19
2017-08-14T10:29:18.788Z,95690.00
2017-08-14T10:31:46.714Z,95689.30
2017-08-14T10:34:14.482Z,95688.89
2017-08-14T10:36:42.010Z,95687.81
2017-08-14T10:39:09.601Z,95685.38
2017-08-14T10:41:37.399Z,95685.20
2017-08-14T10:44:05.189Z,95680.31
2017-08-14T10:46:32.752Z,95674.73
2017-08-14T10:49:00.495Z,95678.06
2017-08-14T10:51:28.001Z,95674.77
2017-08-14T10:53:55.785Z,95683.51
2017-08-14T10:56:23.329Z,95681.50
2017-08-14T10:58:50.864Z,95669.13
2017-08-14T11:01:18.416Z,95670.77
2017-08-14T11:03:45.955Z,95661.82
2017-08-14T11:06:13.544Z,95666.48
2017-08-14T11:08:41.103Z,95669.33
2017-08-14T11:11:08.622Z,95667.07
2017-08-14T11:13:36.199Z,95673.44
2017-08-14T11:16:03.802Z,95670.80
2017-08-14T11:18:31.558Z,95677.66
2017-08-14T11:20:59.338Z,95663.05
2017-08-14T11:23:26.890Z,95665.14
2017-08-14T11:25:54.416Z,95660.67
2017-08-14T11:28:21.937Z,95659.73
2017-08-14T11:30:49.557Z,95655.83
2017-08-14T11:33:17.082Z,95655.06
2017-08-14T11:35:44.626Z,95656.69
2017-08-14T11:38:12.181Z,95650.27
2017-08-14T11:40:39.716Z,95650.05
2017-08-14T11:43:07.290Z,95645.45
2017-08-14T11:45:34.852Z,95643.40
2017-08-14T11:48:02.612Z,95646.80
2017-08-14T11:50:30.133Z,95636.40
2017-08-14T11:52:57.713Z,95639.83
2017-08-14T11:55:25.242Z,95644.75
2017-08-14T11:57:52.789Z,95645.56
2017-08-14T12:00:20.498Z,95644.41
2017-08-14T12:02:48.084Z,95645.61
2017-08-14T12:05:15.849Z,95638.41
2017-08-14T12:07:43.399Z,95640.23
2017-08-14T12:10:10.924Z,95637.17
2017-08-14T12:12:38.679Z,95643.84
2017-08-14T12:15:06.280Z,95632.78
2017-08-14T12:17:33.839Z,95633.63
2017-08-14T12:20:01.443Z,95634.10
2017-08-14T12:22:29.008Z,95635.29
2017-08-14T12:24:56.548Z,95622.88
2017-08-14T12:27:24.380Z,95626.77
2017-08-14T12:29:51.923Z,95621.70
2017-08-14T12:32:19.515Z,95622.25
2017-08-14T12:34:47.268Z,95611.27
2017-08-14T12:37:14.795Z,95615.23
2017-08-14T12:39:42.371Z,95617.19
2017-08-14T12:42:09.941Z,95616.98
2017-08-14T12:44:37.501Z,95612.30
2017-08-14T12:47:05.061Z,95618.44
2017-08-14T12:49:32.800Z,95614.23
2017-08-14T12:52:00.338Z,95611.55
2017-08-14T12:54:28.116Z,95617.32
2017-08-14T12:56:55.623Z,95621.17
2017-08-14T12:59:23.149Z,95620.52
2017-08-14T13:01:50.733Z,95617.67
2017-08-14T13:04:18.284Z,95622.98
2017-08-14T13:06:45.808Z,95614.42
2017-08-14T13:09:13.613Z,95610.81
2017-08-14T13:11:41.153Z,95615.28
2017-08-14T13:14:08.728Z,95603.09
2017-08-14T13:16:36.289Z,95599.83
2017-08-14T13:19:03.821Z,95607.31
2017-08-14T13:21:31.374Z,95611.64
2017-08-14T13:23:58.964Z,95607.16
2017-08-14T13:26:26.764Z,95611.15
2017-08-14T13:28:54.517Z,95616.55
2017-08-14T13:31:22.073Z,95609.95
2017-08-14T13:33:49.608Z,95615.28
2017-08-14T13:36:17.166Z,95617.87
2017-08-14T13:38:44.755Z,95609.52
2017-08-14T13:41:12.314Z,95620.31
2017-08-14T13:43:39.830Z,95623.50
2017-08-14T13:46:07.477Z,95617.28
2017-08-14T13:48:34.990Z,95623.73
2017-08-14T13:51:02.521Z,95621.31
2017-08-14T13:53:30.081Z,95615.69
2017-08-14T13:55:57.838Z,95608.75
2017-08-14T13:58:25.368Z,95611.67
2017-08-14T14:00:53.199Z,95621.00
2017-08-14T14:03:20.761Z,95619.19
2017-08-14T14:05:48.270Z,95619.78
2017-08-14T14:08:15.837Z,95628.11
2017-08-14T14:10:43.382Z,95633.59
2017-08-14T14:13:11.135Z,95626.77
2017-08-14T14:15:38.697Z,95631.83
2017-08-14T14:18:06.447Z,95627.24
2017-08-14T14:20:33.999Z,95622.11
2017-08-14T14:23:01.592Z,95636.37
2017-08-14T14:25:29.149Z,95637.89
2017-08-14T14:27:56.716Z,95635.37
2017-08-14T14:30:24.298Z,95639.92
2017-08-14T14:32:51.822Z,95641.80
2017-08-14T14:35:19.371Z,95643.90
2017-08-14T14:37:46.938Z,95641.45
2017-08-14T14:40:14.541Z,95649.66
2017-08-14T14:42:42.130Z,95632.13
2017-08-14T14:45:09.679Z,95638.92
2017-08-14T14:47:37.181Z,95640.19
2017-08-14T14:50:04.704Z,95645.38
2017-08-14T14:52:32.237Z,95632.59
2017-08-14T14:54:59.979Z,95644.95
2017-08-14T14:57:27.519Z,95645.35
2017-08-14T14:59:55.088Z,95642.16
2017-08-14T15:02:22.640Z,95641.18
2017-08-14T15:04:50.232Z,95637.20
2017-08-14T15:07:17.773Z,95640.78
2017-08-14T15:09:45.366Z,95647.48
2017-08-14T15:12:13.706Z,95649.30
2017-08-14T15:14:41.232Z,95643.31
2017-08-14T15:17:08.820Z,95641.44
2017-08-14T15:19:36.569Z,95654.84
2017-08-14T15:22:04.099Z,95651.50
2017-08-14T15:24:31.645Z,95659.74
2017-08-14T15:26:59.169Z,95660.36
2017-08-14T15:29:27.385Z,95650.44
2017-08-14T15:32:37.512Z,95658.63
2017-08-14T15:35:05.345Z,95659.39
2017-08-14T15:37:32.864Z,95659.19
2017-08-14T15:40:00.435Z,95661.28
2017-08-14T15:42:27.967Z,95660.52
2017-08-14T15:44:55.548Z,95649.45
2017-08-14T15:47:23.112Z,95652.45
2017-08-14T15:49:50.651Z,95661.11
2017-08-14T15:52:18.187Z,95672.47
2017-08-14T15:54:45.766Z,95676.19
2017-08-14T15:57:13.538Z,95672.89
2017-08-14T15:59:41.307Z,95665.99
2017-08-14T16:02:08.867Z,95680.08
2017-08-14T16:04:36.379Z,95673.77
2017-08-14T16:07:04.139Z,95679.70
2017-08-14T16:09:31.723Z,95683.53
2017-08-14T16:11:59.243Z,95681.56
2017-08-14T16:14:26.764Z,95676.61
2017-08-14T16:16:55.278Z,95681.44
2017-08-14T16:19:34.434Z,95689.77
2017-08-14T16:22:01.997Z,95681.70
2017-08-14T16:24:29.509Z,95690.62
2017-08-14T16:26:57.679Z,95681.30
2017-08-14T16:29:25.221Z,95685.66
2017-08-14T16:31:52.780Z,95695.70
2017-08-14T16:34:20.694Z,95686.84
2017-08-14T16:36:48.264Z,95704.00
2017-08-14T16:39:15.850Z,95691.67
2017-08-14T16:41:43.353Z,95694.83
2017-08-14T16:44:10.963Z,95703.67
2017-08-14T16:46:38.559Z,95700.77
2017-08-14T16:49:06.086Z,95712.44
2017-08-14T16:51:33.639Z,95711.22
2017-08-14T16:54:01.210Z,95710.23
2017-08-14T16:56:28.795Z,95712.47
2017-08-14T16:58:56.394Z,95718.44
2017-08-14T17:01:23.977Z,95716.02
2017-08-14T17:03:51.550Z,95716.66
2017-08-14T17:06:19.080Z,95718.48
2017-08-14T17:08:46.642Z,95725.95
2017-08-14T17:11:14.413Z,95720.98
2017-08-14T17:13:42.166Z,95731.83
2017-08-14T17:16:09.819Z,95732.63
2017-08-14T17:18:37.338Z,95729.53
2017-08-14T17:21:04.890Z,95720.93
2017-08-14T17:23:32.427Z,95728.02
2017-08-14T17:26:00.011Z,95729.19
2017-08-14T17:28:27.526Z,95731.14
2017-08-14T17:30:55.060Z,95736.06
2017-08-14T17:33:23.048Z,95741.77
2017-08-14T17:35:50.620Z,95741.95
2017-08-14T17:38:18.196Z,95747.47
2017-08-14T17:40:45.741Z,95753.74
2017-08-14T17:43:13.312Z,95753.34
2017-08-14T17:45:40.902Z,95756.89
2017-08-14T17:48:08.433Z,95753.17
2017-08-14T17:50:36.162Z,95758.05
2017-08-14T17:53:03.756Z,95763.17
2017-08-14T17:55:31.318Z,95771.42
2017-08-14T17:57:58.880Z,95773.39
2017-08-14T18:00:26.514Z,95773.41
2017-08-14T18:02:54.108Z,95776.55
2017-08-14T18:05:21.692Z,95776.93
2017-08-14T18:07:49.241Z,95776.91
2017-08-14T18:10:16.784Z,95782.22
2017-08-14T18:12:44.289Z,95788.45
2017-08-14T18:15:11.875Z,95786.75
2017-08-14T18:17:39.881Z,95796.16
2017-08-14T18:20:07.509Z,95798.70
2017-08-14T18:22:35.152Z,95807.34
2017-08-14T18:25:02.708Z,95803.83
2017-08-14T18:27:30.280Z,95820.30
2017-08-14T18:29:57.873Z,95816.17
2017-08-14T18:32:25.439Z,95815.15
2017-08-14T18:34:53.038Z,95818.66
2017-08-14T18:37:20.636Z,95816.91
2017-08-14T18:39:48.277Z,95824.56
2017-08-14T18:42:15.831Z,95818.23
2017-08-14T18:44:43.819Z,95819.61
2017-08-14T18:47:11.391Z,95827.31
2017-08-14T18:49:39.252Z,95831.77
2017-08-14T18:52:06.792Z,95835.72
2017-08-14T18:54:34.434Z,95828.44
2017-08-14T18:57:02.245Z,95832.13
2017-08-14T18:59:29.751Z,95831.16
2017-08-14T19:01:57.380Z,95839.23
2017-08-14T19:04:24.932Z,95841.16
2017-08-14T19:06:52.749Z,95847.25
2017-08-14T19:09:21.856Z,95847.69
2017-08-14T19:11:48.165Z,95839.78
2017-08-14T19:14:15.706Z,95850.78
2017-08-14T19:16:43.331Z,95848.81
2017-08-14T19:19:11.041Z,95855.46
2017-08-14T19:21:38.738Z,95851.72
2017-08-14T19:24:06.383Z,95856.05
2017-08-14T19:26:34.237Z,95857.91
2017-08-14T19:29:01.914Z,95860.08
2017-08-14T19:31:29.777Z,95858.31
2017-08-14T19:33:57.388Z,95861.60
2017-08-14T19:36:25.333Z,95856.55
2017-08-14T19:38:54.632Z,95861.23
2017-08-14T19:41:22.501Z,95859.86
2017-08-14T19:43:50.018Z,95851.61
2017-08-14T19:46:17.754Z,95860.53
2017-08-14T19:48:45.356Z,95863.85
2017-08-14T19:51:12.876Z,95858.06
2017-08-14T19:53:41.096Z,95870.16
2017-08-14T19:56:08.637Z,95875.44
2017-08-14T19:58:36.149Z,95879.87
2017-08-14T20:01:03.731Z,95870.05
2017-08-14T20:03:31.508Z,95877.09
2017-08-14T20:05:59.080Z,95882.48
2017-08-14T20:08:26.641Z,95877.75
2017-08-14T20:10:54.394Z,95870.58
2017-08-14T20:13:21.923Z,95868.90
2017-08-14T20:15:49.466Z,95879.17
2017-08-14T20:18:17.001Z,95867.05
2017-08-14T20:20:44.561Z,95876.64
2017-08-14T20:23:12.105Z,95874.08
2017-08-14T20:25:39.841Z,95879.92
2017-08-14T20:28:07.365Z,95870.71
2017-08-14T20:30:35.002Z,95864.56
2017-08-14T20:33:02.794Z,95876.86
2017-08-14T20:35:30.650Z,95879.70
2017-08-14T20:37:58.446Z,95880.31
2017-08-14T20:40:25.975Z,95882.52
2017-08-14T20:42:53.502Z,95883.54
2017-08-14T20:45:21.087Z,95877.69
2017-08-14T20:47:48.934Z,95883.35
2017-08-14T20:50:16.449Z,95886.23
2017-08-14T20:52:44.001Z,95885.47
2017-08-14T20:55:11.501Z,95880.69
2017-08-14T20:57:39.300Z,95887.94
2017-08-14T21:00:10.058Z,95884.97
2017-08-14T21:02:37.576Z,95886.16
2017-08-14T21:05:05.107Z,95884.17
2017-08-14T21:07:32.665Z,95888.50
2017-08-14T21:10:00.708Z,95885.80
2017-08-14T21:12:28.564Z,95891.46
2017-08-14T21:14:56.110Z,95892.44
2017-08-14T21:17:23.636Z,95897.30
2017-08-14T21:19:51.169Z,95891.66
2017-08-14T21:22:18.946Z,95902.55
2017-08-14T21:24:46.461Z,95895.36
2017-08-14T21:27:13.989Z,95904.14
2017-08-14T21:29:41.571Z,95905.40
2017-08-14T21:32:09.118Z,95907.29
2017-08-14T21:34:36.617Z,95897.13
2017-08-14T21:37:04.453Z,95897.98
2017-08-14T21:39:32.300Z,95895.94
2017-08-14T21:41:59.809Z,95891.84
2017-08-14T21:44:27.328Z,95897.19
2017-08-14T21:46:55.029Z,95902.75
2017-08-14T21:49:22.587Z,95909.23
2017-08-14T21:51:50.115Z,95905.69
2017-08-14T21:54:18.646Z,95904.09
2017-08-14T21:56:46.436Z,95899.77
2017-08-14T21:59:13.954Z,95896.30
2017-08-14T22:01:41.520Z,95896.11
2017-08-14T22:04:09.257Z,95904.03
2017-08-14T22:06:37.123Z,95902.56
2017-08-14T22:09:04.736Z,95899.53
2017-08-14T22:11:33.266Z,95892.57
2017-08-14T22:14:01.080Z,95897.55
2017-08-14T22:16:29.928Z,95898.69
2017-08-14T22:18:57.533Z,95896.21
2017-08-14T22:21:25.074Z,95890.63
2017-08-14T22:23:52.687Z,95890.22
2017-08-14T22:26:20.233Z,95890.64
2017-08-14T22:28:47.811Z,95886.63
2017-08-14T22:31:15.353Z,95882.77
2017-08-14T22:33:42.877Z,95882.82
2017-08-14T22:36:10.680Z,95877.73
2017-08-14T22:38:38.216Z,95871.11
2017-08-14T22:41:05.739Z,95872.76
2017-08-14T22:43:33.258Z,95875.61
2017-08-14T22:46:01.044Z,95881.33
2017-08-14T22:48:28.575Z,95877.14
2017-08-14T22:50:56.126Z,95868.27
2017-08-14T22:53:23.664Z,95878.52
2017-08-14T22:55:51.210Z,95877.22
2017-08-14T22:58:18.741Z,95866.65
2017-08-14T23:00:46.300Z,95863.67
2017-08-14T23:03:13.821Z,95865.34
2017-08-14T23:05:42.042Z,95865.73
2017-08-14T23:08:09.615Z,95861.06
2017-08-14T23:10:37.126Z,95866.59
2017-08-14T23:13:04.660Z,95857.46
2017-08-14T23:15:32.216Z,95856.06
2017-08-14T23:18:00.043Z,95854.78
2017-08-14T23:20:27.805Z,95852.67
2017-08-14T23:22:55.348Z,95853.29
2017-08-14T23:25:22.880Z,95854.59
2017-08-14T23:27:50.393Z,95855.16
2017-08-14T23:30:18.267Z,95859.12
2017-08-14T23:32:45.788Z,95856.59
2017-08-14T23:35:13.299Z,95850.15
2017-08-14T23:37:41.094Z,95852.38
2017-08-14T23:40:08.619Z,95855.09
2017-08-14T23:42:36.144Z,95853.68
2017-08-14T23:45:03.733Z,95853.30
2017-08-14T23:47:31.575Z,95851.88
2017-08-14T23:49:59.086Z,95851.23
2017-08-14T23:52:26.659Z,95851.86
2017-08-14T23:54:54.176Z,95848.66
2017-08-14T23:57:22.010Z,95844.95
2017-08-14T23:59:49.606Z,95847.24
